createdAt,value
2019-06-20T00:09:54.630Z,83.60
2019-06-20T00:19:56.083Z,84.10
2019-06-20T00:29:57.726Z,84.30
2019-06-20T00:39:59.165Z,84.70
2019-06-20T00:50:00.767Z,84.70
2019-06-20T01:00:05.195Z,85.60
2019-06-20T01:10:08.311Z,85.40
2019-06-20T01:20:09.838Z,86.90
2019-06-20T01:30:11.665Z,85.50
2019-06-20T01:40:12.986Z,85.80
2019-06-20T01:50:14.368Z,85.70
2019-06-20T02:00:31.474Z,85.90
2019-06-20T02:10:32.949Z,86.10
2019-06-20T02:20:45.191Z,86.40
2019-06-20T02:30:46.789Z,86.40
2019-06-20T02:40:48.247Z,86.50
2019-06-20T02:50:49.627Z,86.50
2019-06-20T03:00:55.432Z,86.80
2019-06-20T03:10:56.644Z,86.90
2019-06-20T03:20:57.969Z,86.90
2019-06-20T03:30:59.469Z,86.90
2019-06-20T03:41:00.995Z,86.90
2019-06-20T03:51:02.580Z,86.60
2019-06-20T04:01:04.013Z,86.60
2019-06-20T04:11:05.309Z,86.60
2019-06-20T04:21:06.556Z,86.30
2019-06-20T04:31:08.049Z,85.90
2019-06-20T04:41:09.585Z,85.30
2019-06-20T04:51:11.020Z,84.30
2019-06-20T05:01:12.339Z,83.50
2019-06-20T05:11:13.766Z,81.00
2019-06-20T05:21:15.270Z,77.20
2019-06-20T05:31:16.573Z,74.80
2019-06-20T05:41:17.881Z,70.80
2019-06-20T05:51:19.350Z,69.40
2019-06-20T06:01:20.680Z,71.10
2019-06-20T06:11:21.999Z,73.40
2019-06-20T06:21:23.266Z,74.80
2019-06-20T06:31:24.550Z,75.30
2019-06-20T06:41:26.649Z,75.50
2019-06-20T06:51:28.423Z,75.70
2019-06-20T07:01:29.987Z,75.80
2019-06-20T07:11:31.312Z,75.80
2019-06-20T07:21:32.523Z,75.40
2019-06-20T07:31:33.914Z,74.80
2019-06-20T07:41:35.576Z,74.30
2019-06-20T07:51:36.799Z,73.80
2019-06-20T08:01:38.357Z,73.50
2019-06-20T08:11:39.817Z,73.60
2019-06-20T08:21:44.062Z,71.90
2019-06-20T08:31:44.485Z,71.30
2019-06-20T08:41:46.067Z,68.80
2019-06-20T08:51:47.684Z,65.10
2019-06-20T09:01:49.320Z,63.60
2019-06-20T09:11:51.008Z,61.20
2019-06-20T09:21:53.922Z,61.10
2019-06-20T09:31:55.724Z,60.70
2019-06-20T09:41:57.042Z,60.50
2019-06-20T09:51:58.734Z,60.90
2019-06-20T10:02:00.681Z,61.90
2019-06-20T10:12:01.829Z,62.90
2019-06-20T10:22:03.357Z,64.30
2019-06-20T10:32:04.512Z,66.50
2019-06-20T10:42:06.373Z,66.90
2019-06-20T10:52:10.621Z,68.00
2019-06-20T11:02:11.947Z,67.10
2019-06-20T11:12:13.648Z,66.80
2019-06-20T11:22:15.636Z,66.20
2019-06-20T11:32:17.196Z,63.20
2019-06-20T11:42:18.613Z,60.60
2019-06-20T11:52:19.944Z,57.90
2019-06-20T12:02:21.290Z,54.80
2019-06-20T12:12:22.657Z,52.90
2019-06-20T12:22:24.118Z,49.70
2019-06-20T12:32:25.645Z,44.70
2019-06-20T12:42:27.280Z,41.60
2019-06-20T12:52:28.639Z,41.30
2019-06-20T13:02:31.799Z,40.30
2019-06-20T13:12:33.204Z,38.80
2019-06-20T13:22:34.568Z,38.20
2019-06-20T13:32:35.959Z,37.90
2019-06-20T13:42:39.067Z,39.30
2019-06-20T13:52:43.505Z,39.50
2019-06-20T14:02:46.487Z,40.20
2019-06-20T14:12:48.757Z,40.60
2019-06-20T14:22:50.233Z,41.30
2019-06-20T14:32:51.614Z,41.80
2019-06-20T14:42:54.253Z,42.60
2019-06-20T14:52:55.697Z,43.00
2019-06-20T15:02:58.685Z,42.40
2019-06-20T15:13:00.062Z,43.00
2019-06-20T15:23:01.356Z,44.10
2019-06-20T15:33:09.887Z,44.50
2019-06-20T15:43:05.731Z,44.50
2019-06-20T15:53:07.521Z,44.70
2019-06-20T16:03:11.278Z,44.00
2019-06-20T16:13:11.938Z,43.70
2019-06-20T16:23:13.183Z,41.90
2019-06-20T16:33:24.630Z,41.70
2019-06-20T16:43:17.671Z,41.40
2019-06-20T16:53:18.862Z,41.20
2019-06-20T17:03:20.114Z,42.30
2019-06-20T17:13:21.285Z,42.20
2019-06-20T17:23:22.692Z,42.70
2019-06-20T17:33:24.070Z,43.50
2019-06-20T17:43:25.686Z,45.00
2019-06-20T17:53:26.986Z,46.20
2019-06-20T18:03:28.338Z,46.80
2019-06-20T18:13:29.573Z,47.50
2019-06-20T18:23:32.250Z,47.70
2019-06-20T18:33:33.533Z,48.40
2019-06-20T18:43:34.832Z,50.20
2019-06-20T18:53:36.034Z,52.40
2019-06-20T19:03:37.593Z,54.70
2019-06-20T19:13:38.873Z,54.40
2019-06-20T19:23:41.795Z,56.30
2019-06-20T19:33:43.129Z,57.80
2019-06-20T19:43:44.427Z,59.50
2019-06-20T19:53:46.110Z,61.00
2019-06-20T20:03:47.489Z,59.00
2019-06-20T20:13:48.712Z,58.20
2019-06-20T20:23:49.987Z,57.60
2019-06-20T20:33:51.255Z,59.00
2019-06-20T20:43:52.608Z,60.60
2019-06-20T20:53:53.930Z,62.70
2019-06-20T21:03:55.377Z,64.60
2019-06-20T21:13:56.652Z,66.80
2019-06-20T21:23:57.984Z,67.90
2019-06-20T21:33:59.361Z,69.80
2019-06-20T21:44:00.596Z,70.70
2019-06-20T21:54:01.928Z,71.40
2019-06-20T22:04:03.934Z,71.90
2019-06-20T22:14:05.136Z,72.70
2019-06-20T22:24:06.531Z,73.60
2019-06-20T22:34:07.873Z,73.80
2019-06-20T22:44:09.234Z,74.40
2019-06-20T22:54:10.512Z,75.50
2019-06-20T23:04:11.704Z,76.80
2019-06-20T23:14:13.283Z,77.70
2019-06-20T23:24:14.590Z,78.90
2019-06-20T23:34:15.885Z,79.50
2019-06-20T23:44:17.213Z,80.30
2019-06-20T23:54:18.481Z,80.90
